Latest Weather Observations for Maria Island

IDT60901

Issued at 9:51 am EST Wednesday 15 July 2020 (issued every 10 minutes, with the page automatically refreshed every 10 minutes)

About weather observations | Map of Hobart area stations | Latest observations for Hobart area | Other Formats
Station Details ID: 092124 Name: MARIA ISLAND (POINT LESUEUR) Lat: -42.66 Lon: 148.02 Height: 28.0 m
Data from the previous 72 hours. | See also: Recent months at Maria Island
Date/Time
EST
Temp
°C
App
Temp
°C
Dew
Point
°C
Rel
Hum
%
Delta-T
°C
Wind Press
QNH
hPa
Press
MSL
hPa
Rain since
9am
mm
Dir  Spd
km/h
Gust
km/h
Spd
kts
Gust
kts
15/09:30am 9.8 4.9 7.1 83 1.3 S 22 26 12 14 1028.7 1028.8 0.0
15/09:00am 9.7 4.9 7.5 86 1.0 SSW 22 26 12 14 1028.8 1028.9 1.2
15/08:30am 9.4 4.8 8.2 92 0.6 SSW 22 26 12 14 1028.8 1028.9 1.2
15/08:00am 9.1 4.2 8.6 97 0.2 SSW 24 28 13 15 1029.0 1029.1 1.2
15/07:30am 8.9 4.5 8.8 99 0.0 SSW 22 28 12 15 1029.1 1029.2 1.0
15/07:00am 8.5 4.5 8.4 99 0.0 SSW 19 24 10 13 1029.2 1029.3 1.0
15/06:30am 8.1 3.5 8.0 99 0.0 SSW 22 26 12 14 1029.3 1029.4 0.8
15/06:00am 8.2 3.2 7.9 98 0.1 SW 24 32 13 17 1029.2 1029.3 0.4
15/05:30am 8.3 3.2 7.7 96 0.3 SSW 24 28 13 15 1029.2 1029.3 0.2
15/05:00am 8.7 3.6 7.8 94 0.4 SSW 24 28 13 15 1029.3 1029.4 0.0
15/04:30am 8.8 4.4 7.4 91 0.7 S 20 28 11 15 1029.4 1029.5 0.0
15/04:00am 9.0 4.2 7.5 90 0.7 SW 22 26 12 14 1029.5 1029.6 0.0
15/03:30am 9.3 4.9 7.3 87 0.9 S 20 22 11 12 1029.5 1029.6 0.0
15/03:00am 9.9 6.1 5.9 76 1.8 SSE 15 20 8 11 1029.9 1030.0 0.0
15/02:30am 9.8 6.9 6.5 80 1.5 SSE 11 17 6 9 1030.3 1030.4 0.0
15/02:00am 9.3 5.5 7.6 89 0.8 S 17 22 9 12 1030.5 1030.6 0.0
15/01:30am 9.1 3.9 7.4 89 0.8 SSW 24 30 13 16 1030.5 1030.6 0.0
15/01:00am 9.9 5.8 6.3 78 1.7 SSE 17 22 9 12 1030.7 1030.8 0.0
15/12:30am 9.3 5.0 7.9 91 0.7 S 20 28 11 15 1030.9 1031.0 0.0
15/12:00am 9.5 5.4 6.4 81 1.4 SSE 17 20 9 11 1031.2 1031.3 0.0
 
Date/Time
EST
Temp
°C
App
Temp
°C
Dew
Point
°C
Rel
Hum
%
Delta-T
°C
Wind Press
QNH
hPa
Press
MSL
hPa
Rain since
9am
mm
Dir  Spd
km/h
Gust
km/h
Spd
kts
Gust
kts
14/11:30pm 9.3 6.0 6.2 81 1.4 SE 13 20 7 11 1031.4 1031.5 0.0
14/11:00pm 9.8 5.7 6.3 79 1.6 SSE 17 20 9 11 1031.6 1031.7 0.0
14/10:30pm 10.0 6.2 5.8 75 1.9 SSE 15 24 8 13 1031.8 1031.9 0.0
14/10:00pm 10.1 6.6 5.5 73 2.1 SE 13 19 7 10 1031.9 1032.0 0.0
14/09:30pm 10.2 6.1 6.0 75 1.9 SSE 17 20 9 11 1032.0 1032.1 0.0
14/09:00pm 10.4 5.9 6.0 74 2.0 SSE 19 26 10 14 1031.9 1032.0 0.0
14/08:30pm 10.1 6.5 6.6 79 1.6 S 15 19 8 10 1032.1 1032.2 0.0
14/08:00pm 9.9 5.8 6.3 78 1.7 SSE 17 22 9 12 1032.0 1032.1 0.0
14/07:30pm 10.2 6.5 6.2 76 1.9 SSE 15 20 8 11 1031.9 1032.0 0.0
14/07:00pm 10.6 7.0 4.9 68 2.6 S 13 17 7 9 1031.9 1032.0 0.0
14/06:30pm 10.4 6.1 5.2 70 2.4 SSE 17 20 9 11 1031.8 1031.9 0.0
14/06:00pm 10.5 7.3 5.1 69 2.4 SE 11 13 6 7 1031.7 1031.8 0.0
14/05:30pm 10.5 6.2 5.1 69 2.5 SE 17 20 9 11 1031.6 1031.7 0.0
14/05:00pm 10.6 7.6 6.0 73 2.1 SE 11 17 6 9 1031.5 1031.6 0.0
14/04:30pm 10.6 6.9 6.2 74 2.1 S 15 20 8 11 1031.1 1031.2 0.0
14/04:00pm 10.5 6.4 6.3 75 1.9 S 17 20 9 11 1031.1 1031.2 0.0
14/03:30pm 10.4 5.9 6.0 74 2.0 S 19 20 10 11 1031.3 1031.4 0.0
14/03:00pm 10.5 6.0 6.1 74 2.0 SSW 19 20 10 11 1031.2 1031.3 0.0
14/02:30pm 10.6 6.2 6.4 75 2.0 SSW 19 22 10 12 1031.2 1031.3 0.0
14/02:00pm 10.6 6.2 6.4 75 1.9 SSW 19 24 10 13 1031.1 1031.2 0.0
14/01:30pm 10.5 5.5 6.5 76 1.9 SSW 22 24 12 13 1031.1 1031.2 0.0
14/01:00pm 10.6 6.1 6.2 74 2.0 SSW 19 22 10 12 1031.5 1031.6 0.0
14/12:30pm 10.5 5.9 6.5 76 1.9 SSW 20 24 11 13 1031.7 1031.8 0.0
14/12:00pm 10.3 5.7 6.5 77 1.8 SSW 20 24 11 13 1031.9 1032.0 0.0
14/11:30am 10.2 5.6 6.4 77 1.8 SSW 20 24 11 13 1032.3 1032.4 0.0
14/11:00am 10.1 5.5 6.3 77 1.8 SSW 20 24 11 13 1032.5 1032.6 0.0
14/10:30am 10.2 5.7 6.0 75 1.9 SSW 19 20 10 11 1032.8 1032.9 0.0
14/10:00am 10.0 4.9 6.2 77 1.7 SSW 22 24 12 13 1032.8 1032.9 0.0
14/09:30am 9.8 5.1 6.2 78 1.7 SSW 20 26 11 14 1032.8 1032.9 0.0
14/09:00am 9.6 4.6 6.3 80 1.5 SSW 22 26 12 14 1032.9 1033.0 0.0
14/08:30am 9.8 5.1 6.2 78 1.7 SSW 20 22 11 12 1033.0 1033.1 0.0
14/08:00am 9.7 5.2 6.1 78 1.6 SSW 19 22 10 12 1032.8 1032.9 0.0
14/07:30am 9.5 4.8 6.0 79 1.6 SSW 20 24 11 13 1032.8 1032.9 0.0
14/07:00am 9.4 4.7 5.9 79 1.6 SSW 20 26 11 14 1032.6 1032.7 0.0
14/06:30am 9.8 6.7 5.6 75 1.9 SSE 11 19 6 10 1032.5 1032.6 0.0
14/06:00am 10.0 6.8 5.2 72 2.2 SSE 11 17 6 9 1032.1 1032.2 0.0
14/05:30am 10.0 7.7 5.6 74 2.0 SSE 7 13 4 7 1031.9 1032.0 0.0
14/05:00am 9.8 7.0 5.0 72 2.1 E 9 17 5 9 1031.8 1031.9 0.0
14/04:30am 9.6 7.7 4.8 72 2.1 ENE 4 6 2 3 1031.5 1031.6 0.0
14/04:00am 9.7 7.4 5.5 75 1.9 ENE 7 11 4 6 1031.3 1031.4 0.0
14/03:30am 9.9 7.1 5.3 73 2.1 SE 9 11 5 6 1031.4 1031.5 0.0
14/03:00am 9.9 7.1 5.1 72 2.1 SE 9 13 5 7 1031.5 1031.6 0.0
14/02:30am 9.9 8.6 5.9 76 1.8 SE 2 4 1 2 1031.5 1031.6 0.0
14/02:00am 9.5 7.9 6.2 80 1.5 NE 4 7 2 4 1031.6 1031.7 0.0
14/01:30am 10.0 7.8 6.3 78 1.7 SSW 7 11 4 6 1031.4 1031.5 0.0
14/01:00am 9.5 8.3 6.4 81 1.4 NNE 2 4 1 2 1031.4 1031.5 0.0
14/12:30am 9.6 8.7 6.0 78 1.7 CALM 0 4 0 2 1031.5 1031.6 0.0
14/12:00am 9.7 8.8 5.9 77 1.7 CALM 0 0 0 0 1031.7 1031.8 0.0
 
Date/Time
EST
Temp
°C
App
Temp
°C
Dew
Point
°C
Rel
Hum
%
Delta-T
°C
Wind Press
QNH
hPa
Press
MSL
hPa
Rain since
9am
mm
Dir  Spd
km/h
Gust
km/h
Spd
kts
Gust
kts
13/11:30pm 9.9 8.9 5.7 75 1.9 CALM 0 2 0 1 1031.8 1031.9 0.0
13/11:00pm 9.5 7.8 6.0 79 1.6 W 4 6 2 3 1031.9 1032.0 0.0
13/10:30pm 9.1 7.1 6.2 82 1.3 W 6 7 3 4 1031.8 1031.9 0.0
13/10:00pm 9.3 7.6 6.0 80 1.5 WSW 4 6 2 3 1031.8 1031.9 0.0
13/09:30pm 9.3 7.2 5.9 79 1.6 W 6 6 3 3 1031.6 1031.7 0.0
13/09:00pm 9.4 7.6 5.4 76 1.8 WNW 4 6 2 3 1031.5 1031.6 0.0
13/08:30pm 9.7 8.6 5.3 74 2.0 CALM 0 0 0 0 1031.6 1031.7 0.0
13/08:00pm 9.3 7.7 4.3 71 2.2 NE 2 4 1 2 1031.5 1031.6 0.0
13/07:30pm 9.3 6.9 4.5 72 2.1 NNE 6 7 3 4 1031.3 1031.4 0.0
13/07:00pm 9.1 6.7 4.3 72 2.1 NE 6 7 3 4 1031.2 1031.3 0.0
13/06:30pm 9.3 7.7 4.3 71 2.2 NE 2 6 1 3 1030.8 1030.9 0.0
13/06:00pm 10.1 8.8 4.3 67 2.6 CALM 0 4 0 2 1030.7 1030.8 0.0
13/05:30pm 10.4 8.4 4.3 66 2.7 SSE 4 6 2 3 1030.6 1030.7 0.0
13/05:00pm 10.4 7.9 3.9 64 2.8 ESE 6 11 3 6 1030.5 1030.6 0.0
13/04:30pm 10.5 6.9 4.9 68 2.5 SSE 13 15 7 8 1030.3 1030.4 0.0
13/04:00pm 10.8 8.0 5.1 68 2.6 SE 9 15 5 8 1030.1 1030.2 0.0
13/03:30pm 10.9 7.6 4.8 66 2.8 E 11 17 6 9 1030.0 1030.1 0.0
13/03:00pm 11.0 7.3 6.4 73 2.1 SSW 15 20 8 11 1029.8 1029.9 0.0
13/02:30pm 11.0 7.7 6.2 72 2.2 S 13 15 7 8 1029.7 1029.8 0.0
13/02:00pm 10.8 7.1 6.4 74 2.0 SW 15 17 8 9 1029.7 1029.8 0.0
13/01:30pm 10.8 6.7 6.4 74 2.1 SSW 17 19 9 10 1029.7 1029.8 0.0
13/01:00pm 11.5 7.5 6.8 73 2.2 S 17 19 9 10 1029.9 1030.0 0.0
13/12:30pm 10.5 6.5 6.6 77 1.8 S 17 19 9 10 1030.0 1030.1 0.0
13/12:00pm 10.6 6.6 6.6 76 1.9 S 17 19 9 10 1030.1 1030.2 0.0
13/11:30am 10.5 6.8 6.5 76 1.9 SSW 15 15 8 8 1030.2 1030.3 0.0
13/11:00am 10.2 6.9 6.4 77 1.8 S 13 15 7 8 1030.6 1030.7 0.0
13/10:30am 9.6 6.0 6.9 83 1.3 S 15 17 8 9 1030.7 1030.8 0.0
13/10:00am 9.5 5.5 6.8 83 1.3 S 17 19 9 10 1030.5 1030.6 0.0
13/09:30am 9.3 5.3 6.7 84 1.2 S 17 19 9 10 1030.4 1030.5 0.0
13/09:00am 9.1 5.2 6.9 86 1.0 S 17 19 9 10 1030.2 1030.3 0.0
13/08:30am 9.0 5.1 7.0 87 0.9 S 17 20 9 11 1029.9 1030.0 0.0
13/08:00am 8.8 5.2 6.8 87 0.9 S 15 17 8 9 1029.7 1029.8 0.0
13/07:30am 8.8 5.6 6.8 87 0.9 S 13 15 7 8 1029.4 1029.5 0.0
13/07:00am 8.9 5.7 6.7 86 1.0 S 13 15 7 8 1029.1 1029.2 0.0
13/06:30am 8.9 6.0 6.7 86 1.0 SSE 11 13 6 7 1028.7 1028.8 0.0
13/06:00am 8.8 5.1 6.4 85 1.1 SSE 15 17 8 9 1028.5 1028.6 0.0
13/05:30am 9.1 7.0 6.5 84 1.2 SSW 7 13 4 7 1028.3 1028.4 0.0
13/05:00am 9.1 5.5 6.7 85 1.1 S 15 17 8 9 1028.2 1028.3 0.0
13/04:30am 9.0 4.7 6.8 86 1.0 S 19 20 10 11 1028.0 1028.1 0.0
13/04:00am 9.1 4.7 6.7 85 1.1 SSE 19 20 10 11 1028.1 1028.2 0.0
13/03:30am 9.2 7.4 7.0 86 1.0 SW 6 15 3 8 1028.1 1028.2 0.0
13/03:00am 9.1 7.1 6.9 86 1.0 SW 7 15 4 8 1028.1 1028.2 0.0
13/02:30am 9.1 7.1 6.9 86 1.0 WSW 7 15 4 8 1028.0 1028.1 0.0
13/02:00am 9.2 6.9 7.6 90 0.8 S 9 17 5 9 1027.9 1028.0 0.0
13/01:30am 8.0 7.2 6.6 91 0.6 CALM 0 0 0 0 1027.6 1027.7 0.0
13/01:00am 7.9 5.9 6.4 90 0.7 WNW 6 6 3 3 1027.3 1027.4 0.0
13/12:30am 7.8 5.7 5.9 88 0.9 W 6 9 3 5 1027.3 1027.4 0.0
13/12:00am 8.8 6.4 6.8 87 0.9 SW 9 15 5 8 1027.4 1027.5 0.0
 
Date/Time
EST
Temp
°C
App
Temp
°C
Dew
Point
°C
Rel
Hum
%
Delta-T
°C
Wind Press
QNH
hPa
Press
MSL
hPa
Rain since
9am
mm
Dir  Spd
km/h
Gust
km/h
Spd
kts
Gust
kts
12/11:30pm 8.8 7.2 6.3 84 1.2 WSW 4 6 2 3 1027.4 1027.5 0.0
12/11:00pm 9.3 6.0 6.4 82 1.3 SW 13 17 7 9 1027.2 1027.3 0.0
12/10:30pm 9.3 5.3 6.6 83 1.3 SSW 17 19 9 10 1026.9 1027.0 0.0
12/10:00pm 9.3 4.9 6.6 83 1.2 S 19 20 10 11 1026.8 1026.9 0.0
12/09:30pm 9.4 5.4 6.7 83 1.3 S 17 19 9 10 1026.8 1026.9 0.0
12/09:00pm 9.3 6.0 6.2 81 1.4 SSW 13 17 7 9 1026.6 1026.7 0.0
12/08:30pm 9.5 5.8 6.4 81 1.4 S 15 20 8 11 1026.4 1026.5 0.0
12/08:00pm 9.7 5.2 6.2 79 1.6 SSW 19 22 10 12 1026.0 1026.1 0.0
12/07:30pm 9.7 5.6 6.1 78 1.7 SSW 17 20 9 11 1025.8 1025.9 0.0
12/07:00pm 9.5 5.3 5.9 78 1.6 SSW 17 19 9 10 1025.5 1025.6 0.0
12/06:30pm 9.7 5.1 5.5 75 1.9 SW 19 24 10 13 1025.2 1025.3 0.0
12/06:00pm 9.7 5.5 5.9 77 1.7 SSW 17 22 9 12 1025.1 1025.2 0.0
12/05:30pm 9.7 4.5 5.7 76 1.8 SSW 22 24 12 13 1024.6 1024.7 0.0
12/05:00pm 9.9 4.4 5.7 75 1.9 SSW 24 28 13 15 1024.2 1024.3 0.0
12/04:30pm 10.3 4.8 6.1 75 1.9 SSW 24 28 13 15 1023.9 1024.0 0.0
12/04:00pm 10.6 4.8 6.4 75 2.0 SSW 26 28 14 15 1023.6 1023.7 0.0
12/03:30pm 10.9 5.4 5.9 71 2.3 S 24 28 13 15 1023.3 1023.4 0.0
12/03:00pm 10.9 5.5 6.5 74 2.1 SSW 24 28 13 15 1023.1 1023.2 0.0
12/02:30pm 11.0 6.4 6.4 73 2.2 S 20 24 11 13 1022.8 1022.9 0.0
12/02:00pm 11.2 5.9 6.7 74 2.1 SSW 24 28 13 15 1022.6 1022.7 0.0
12/01:30pm 10.1 5.8 7.2 82 1.4 S 19 24 10 13 1022.6 1022.7 0.0
12/01:00pm 10.7 5.6 7.8 82 1.4 SSW 24 28 13 15 1022.3 1022.4 0.0
12/12:30pm 10.5 5.5 7.9 84 1.3 SSW 24 28 13 15 1022.2 1022.3 0.0
12/12:00pm 11.0 6.0 8.2 83 1.4 SSW 24 28 13 15 1022.1 1022.2 0.0
12/11:30am 10.3 5.7 8.1 86 1.1 SSW 22 26 12 14 1022.3 1022.4 0.0
12/11:00am 10.5 5.5 7.9 84 1.3 SSW 24 28 13 15 1022.3 1022.4 0.0
12/10:30am 10.6 5.6 8.0 84 1.3 SSW 24 26 13 14 1022.2 1022.3 0.0
12/10:00am 10.3 5.5 7.5 83 1.3 SSW 22 24 12 13 1021.9 1022.0 0.0

Latest Capital City Observations: Canberra | Sydney | Melbourne | Brisbane | Adelaide | Perth | Hobart | Darwin

Other formats

Comma delimited format used in spreadsheet applications
http://www.bom.gov.au/fwo/IDT60901/IDT60901.95988.axf

JavaScript Object Notation format (JSON) in row-major order
http://www.bom.gov.au/fwo/IDT60901/IDT60901.95988.json

Data quality

Most of these data are generated automatically and are frequently updated. Quality checks on data are not normally performed. It is possible for incorrect values to appear. Refer to information at About Latest Weather Observations and please check the disclaimer before using these data.